createdAt,value
2023-05-24T00:01:57.138Z,8.63
2023-05-24T00:06:49.644Z,8.92
2023-05-24T00:11:41.666Z,8.78
2023-05-24T00:16:34.055Z,8.55
2023-05-24T00:21:26.520Z,8.02
2023-05-24T00:26:18.659Z,8.56
2023-05-24T00:31:19.629Z,8.46
2023-05-24T00:36:12.955Z,8.23
2023-05-24T00:41:05.835Z,7.53
2023-05-24T00:46:19.208Z,8.31
2023-05-24T00:51:12.925Z,8.45
2023-05-24T00:56:07.299Z,7.60
2023-05-24T01:01:04.070Z,8.28
2023-05-24T01:06:04.251Z,7.59
2023-05-24T01:11:19.317Z,8.23
2023-05-24T01:16:35.383Z,7.97
2023-05-24T01:21:43.712Z,8.02
2023-05-24T01:26:52.128Z,7.57
2023-05-24T01:31:46.973Z,6.42
2023-05-24T01:36:44.083Z,7.21
2023-05-24T01:42:18.837Z,7.77
2023-05-24T01:47:39.372Z,7.70
2023-05-24T01:52:34.987Z,7.64
2023-05-24T01:57:34.069Z,7.16
2023-05-24T02:02:28.675Z,7.22
2023-05-24T02:07:20.834Z,7.54
2023-05-24T02:12:12.874Z,7.12
2023-05-24T02:17:06.214Z,7.46
2023-05-24T02:21:58.869Z,7.14
2023-05-24T02:26:50.919Z,7.38
2023-05-24T02:31:43.159Z,6.93
2023-05-24T02:36:38.186Z,7.29
2023-05-24T02:41:30.339Z,6.16
2023-05-24T02:46:24.486Z,6.62
2023-05-24T02:51:17.768Z,6.71
2023-05-24T02:56:09.909Z,6.73
2023-05-24T03:01:02.792Z,5.98
2023-05-24T03:05:58.984Z,6.93
2023-05-24T03:10:56.089Z,6.69
2023-05-24T03:15:48.869Z,6.73
2023-05-24T03:20:44.856Z,6.84
2023-05-24T03:25:42.130Z,6.43
2023-05-24T03:30:34.677Z,6.91
2023-05-24T03:35:27.864Z,5.54
2023-05-24T03:40:21.346Z,6.24
2023-05-24T03:45:30.622Z,6.90
2023-05-24T03:50:30.713Z,6.72
2023-05-24T03:55:22.739Z,7.35
2023-05-24T04:00:17.146Z,6.51
2023-05-24T04:05:14.305Z,5.86
2023-05-24T04:10:08.042Z,7.42
2023-05-24T04:15:01.961Z,6.65
2023-05-24T04:19:55.379Z,8.20
2023-05-24T04:24:50.016Z,8.38
2023-05-24T04:29:45.132Z,8.33
2023-05-24T04:34:37.704Z,8.39
2023-05-24T04:39:33.126Z,8.26
2023-05-24T04:44:26.388Z,8.88
2023-05-24T04:49:20.002Z,9.18
2023-05-24T04:54:12.699Z,9.46
2023-05-24T04:59:06.134Z,10.67
2023-05-24T05:03:58.997Z,12.97
2023-05-24T05:08:54.003Z,15.24
2023-05-24T05:13:46.079Z,17.38
2023-05-24T05:18:39.128Z,19.34
2023-05-24T05:23:33.942Z,20.96
2023-05-24T05:28:26.275Z,22.06
2023-05-24T05:33:19.044Z,22.95
2023-05-24T05:38:11.249Z,23.67
2023-05-24T05:43:04.742Z,24.21
2023-05-24T05:48:01.091Z,24.79
2023-05-24T05:52:53.159Z,25.14
2023-05-24T05:57:45.123Z,25.85
2023-05-24T06:02:37.611Z,25.89
2023-05-24T06:07:31.065Z,26.02
2023-05-24T06:12:22.977Z,26.36
2023-05-24T06:17:15.196Z,27.19
2023-05-24T06:22:07.536Z,28.06
2023-05-24T06:27:04.696Z,26.03
2023-05-24T06:31:57.427Z,27.29
2023-05-24T06:36:52.104Z,28.64
2023-05-24T06:41:44.746Z,28.58
2023-05-24T06:46:38.175Z,29.62
2023-05-24T06:51:31.383Z,29.73
2023-05-24T06:56:24.181Z,27.13
2023-05-24T07:01:16.815Z,26.21
2023-05-24T07:06:10.249Z,23.90
2023-05-24T07:11:03.904Z,24.84
2023-05-24T07:15:57.079Z,22.44
2023-05-24T07:20:49.397Z,21.17
2023-05-24T07:25:43.164Z,22.18
2023-05-24T07:30:35.850Z,24.00
2023-05-24T07:35:30.302Z,22.43
2023-05-24T07:40:23.537Z,23.77
2023-05-24T07:45:15.925Z,25.54
2023-05-24T07:50:09.028Z,26.74
2023-05-24T07:55:01.239Z,28.21
2023-05-24T07:59:54.119Z,26.12
2023-05-24T08:04:46.967Z,25.46
2023-05-24T08:09:38.909Z,25.30
2023-05-24T08:14:32.439Z,22.00
2023-05-24T08:19:24.463Z,22.37
2023-05-24T08:24:16.559Z,20.94
2023-05-24T08:29:09.398Z,19.80
2023-05-24T08:34:04.101Z,19.49
2023-05-24T08:38:56.487Z,19.35
2023-05-24T08:43:49.352Z,18.84
2023-05-24T08:48:48.807Z,17.99
2023-05-24T08:53:42.435Z,17.51
2023-05-24T08:58:35.069Z,17.62
2023-05-24T09:03:34.509Z,18.18
2023-05-24T09:08:27.831Z,17.70
2023-05-24T09:13:21.843Z,18.26
2023-05-24T09:18:13.869Z,18.90
2023-05-24T09:23:08.292Z,18.98
2023-05-24T09:28:06.587Z,19.07
2023-05-24T09:33:00.910Z,18.18
2023-05-24T09:38:00.593Z,18.86
2023-05-24T09:43:10.378Z,22.40
2023-05-24T09:48:04.412Z,22.41
2023-05-24T09:52:59.374Z,21.18
2023-05-24T09:58:04.482Z,20.81
2023-05-24T10:03:05.169Z,19.74
2023-05-24T10:08:01.301Z,19.38
2023-05-24T10:12:57.804Z,20.26
2023-05-24T10:17:50.240Z,20.21
2023-05-24T10:22:48.698Z,20.16
2023-05-24T10:27:42.100Z,20.54
2023-05-24T10:32:38.807Z,20.93
2023-05-24T10:37:31.801Z,20.98
2023-05-24T10:42:23.995Z,20.63
2023-05-24T10:47:20.264Z,19.91
2023-05-24T10:57:33.115Z,20.43
2023-05-24T11:02:36.082Z,20.60
2023-05-24T11:07:29.032Z,20.71
2023-05-24T11:12:24.162Z,21.66
2023-05-24T11:17:19.987Z,21.40
2023-05-24T11:22:15.315Z,21.82
2023-05-24T11:27:07.968Z,21.73
2023-05-24T11:32:08.578Z,21.96
2023-05-24T11:37:07.167Z,21.61
2023-05-24T11:42:00.652Z,20.94
2023-05-24T11:47:03.406Z,20.53
2023-05-24T11:51:57.617Z,19.38
2023-05-24T11:56:51.833Z,19.08
2023-05-24T12:01:45.179Z,18.25
2023-05-24T12:06:47.356Z,18.03
2023-05-24T12:11:42.316Z,18.12
2023-05-24T12:16:37.546Z,17.73
2023-05-24T12:21:33.671Z,17.84
2023-05-24T12:26:27.366Z,17.92
2023-05-24T12:31:20.386Z,17.99
2023-05-24T12:36:13.661Z,18.80
2023-05-24T12:46:01.894Z,19.54
2023-05-24T12:50:54.439Z,20.51
2023-05-24T12:55:48.620Z,20.54
2023-05-24T13:00:41.925Z,20.31
2023-05-24T13:05:36.018Z,20.49
2023-05-24T13:10:28.481Z,21.77
2023-05-24T13:15:25.337Z,21.85
2023-05-24T13:20:22.215Z,22.18
2023-05-24T13:25:15.241Z,21.56
2023-05-24T13:30:10.294Z,21.44
2023-05-24T13:35:08.150Z,21.18
2023-05-24T13:40:00.593Z,20.59
2023-05-24T13:44:52.940Z,19.83
2023-05-24T13:49:45.181Z,20.35
2023-05-24T13:54:39.333Z,19.66
2023-05-24T13:59:32.958Z,19.13
2023-05-24T14:04:25.208Z,18.40
2023-05-24T14:09:17.633Z,18.27
2023-05-24T14:19:05.268Z,18.48
2023-05-24T14:23:59.231Z,18.43
2023-05-24T14:28:54.436Z,18.42
2023-05-24T14:33:49.364Z,18.47
2023-05-24T14:38:43.369Z,18.58
2023-05-24T14:43:36.671Z,18.23
2023-05-24T14:48:29.056Z,18.21
2023-05-24T14:53:23.945Z,19.07
2023-05-24T14:58:15.953Z,19.19
2023-05-24T15:03:14.451Z,19.34
2023-05-24T15:08:08.614Z,20.11
2023-05-24T15:13:01.717Z,19.63
2023-05-24T15:17:53.999Z,19.11
2023-05-24T15:22:47.040Z,18.92
2023-05-24T15:27:39.361Z,19.09
2023-05-24T15:32:32.748Z,18.91
2023-05-24T15:37:24.873Z,18.10
2023-05-24T15:42:18.227Z,17.47
2023-05-24T15:47:10.714Z,17.37
2023-05-24T15:52:05.143Z,17.08
2023-05-24T15:56:57.893Z,17.31
2023-05-24T16:01:52.796Z,16.74
2023-05-24T16:06:46.513Z,16.65
2023-05-24T16:11:48.254Z,16.99
2023-05-24T16:33:15.906Z,16.90
2023-05-24T16:38:09.316Z,16.91
2023-05-24T16:43:02.039Z,16.76
2023-05-24T16:47:54.869Z,16.91
2023-05-24T16:53:19.763Z,16.68
2023-05-24T16:58:35.928Z,16.21
2023-05-24T17:16:10.169Z,16.41
2023-05-24T17:21:07.448Z,16.19
2023-05-24T17:26:10.744Z,16.55
2023-05-24T17:31:05.655Z,16.21
2023-05-24T17:36:13.549Z,16.04
2023-05-24T17:41:34.136Z,16.01
2023-05-24T17:58:16.688Z,16.05
2023-05-24T18:08:58.737Z,15.69
2023-05-24T18:37:21.735Z,13.78
2023-05-24T18:42:56.425Z,15.16
2023-05-24T18:48:13.907Z,15.13
2023-05-24T18:53:14.717Z,14.91
2023-05-24T18:58:33.040Z,13.96
2023-05-24T19:31:46.474Z,14.05
2023-05-24T19:37:10.952Z,13.16
2023-05-24T19:54:06.298Z,12.86
2023-05-24T20:06:35.112Z,13.82
2023-05-24T20:11:31.349Z,13.74
2023-05-24T20:16:25.862Z,12.41
2023-05-24T20:28:42.338Z,11.96
2023-05-24T20:39:09.764Z,12.02
2023-05-24T20:45:01.072Z,11.03
2023-05-24T20:56:06.788Z,12.66
2023-05-24T22:18:47.507Z,11.09
2023-05-24T22:23:39.700Z,9.13
2023-05-24T22:28:50.824Z,9.07
2023-05-24T22:33:44.878Z,11.04
2023-05-24T22:38:38.721Z,10.23
2023-05-24T22:43:30.883Z,10.49
2023-05-24T22:48:29.225Z,9.62
2023-05-24T22:53:21.557Z,10.44
2023-05-24T22:58:17.590Z,10.64
2023-05-24T23:03:10.626Z,10.32
2023-05-24T23:08:11.631Z,9.72
2023-05-24T23:23:47.601Z,10.33
2023-05-24T23:40:17.751Z,10.06
2023-05-24T23:45:14.824Z,9.02
2023-05-24T23:50:20.372Z,8.58
2023-05-24T23:55:18.751Z,9.41
